Værstasjon lokalisert i Sentrumsveien 49 , Siljan , Telemark , Norway : Station location Siljan , Telemark , Norway

Siden oppdateres fra en Oregon Scientific WMR 200 trådløs Værstasjon : Weatherstation Oregon Scientific WMR 200

Værprogramvare som kjøres lokalt er Weather Display 10.37s : Weatherprogram Weather Display 10.37s



Sentrumsveien Siljan  Sentrumsveien Siljan


F 32 Kikut  F 32 Kikut


Lyn radar more information blitzortung!


Rain radar more information rain snow radar


Besøk våre andre vær nettsider:

Template documentation
and downloads

And another site



Nære METAR Rapporter

Notice: A non well formed numeric value encountered in /customers/a/0/a/siljanweather.no/httpd.www/weather28/metar/wsMetarTxt.php on line 415 Warning: A non-numeric value encountered in /customers/a/0/a/siljanweather.no/httpd.www/weather28/metar/metarDisplay.php on line 166
   
ENTO - Sandefjord Torp
Oppdatert: 23-10-2020 03:20
For det meste skyet  
For det meste skyet  
   Vind: Nord 3.1 m/s
Vind: Nord 3.1 m/s
Temperatur: 6°C
Wind Chill: 4°C
Duggpunkt: 6°C
Luftfuktighet: 100%
Barometer: 997 hPa
Sky Radar: For det meste skyet
Sikt: mer enn 10 km
Sky detaljer: For det meste skyet 1200 ft
ENTO 230120Z AUTO 35006KT 320V040 9999 BKN012/// 06/06 Q0997
ENGM - Oslo Gardermoen
Oppdatert: 23-10-2020 03:50
Lett Regn, Overskyet  
Lett Regn, Overskyet  
   Vind: Nord 4.1 m/s
Vind: Nord 4.1 m/s
Temperatur: 4°C
Wind Chill: 1°C
Duggpunkt: 2°C
Luftfuktighet: 87%
Barometer: 997 hPa
Sky Radar: Overskyet
Sikt: mer enn 10 km
Sky detaljer: Noen Skyer 1700 ft,
Overskyet 2600 ft
ENGM 230150Z 36008KT 9999 -RA FEW017 OVC026 04/02 Q0997
ENZV - Stavanger Sola
Oppdatert: 23-10-2020 03:50
For det meste skyet  
For det meste skyet  
   Vind: VNV 6.2 m/s
Vind: VNV 6.2 m/s
Temperatur: 9°C
Wind Chill: 6°C
Duggpunkt: 3°C
Luftfuktighet: 66%
Barometer: 1001 hPa
Sky Radar: For det meste skyet
Sikt: mer enn 10 km
Sky detaljer: For det meste skyet 3400 ft
ENZV 230150Z 29012KT 9999 BKN034 09/03 Q1001
ENSL - Sleipner A Plattform
Oppdatert: 23-10-2020 03:50
For det meste skyet  
For det meste skyet  
   Vind: Vest 4.6 m/s
Vind: Vest 4.6 m/s
Temperatur: 9°C
Wind Chill: 7°C
Duggpunkt: 1°C
Luftfuktighet: 58%
Barometer: 1003 hPa
Sky Radar: For det meste skyet
Sikt: 10 km
Sky detaljer: For det meste skyet 3700 ft
ENSL 230150Z AUTO 27009KT 9999NDV BKN037/// 09/01 Q1003 W08/S4
VHHH - Hong Kong International Airport
Oppdatert: 23-10-2020 03:30
Noen Skyer  
Noen Skyer  
   Vind: NNØ 6.2 m/s
Vind: NNØ 6.2 m/s
Temperatur: 24°C
Duggpunkt: 10°C
Luftfuktighet: 41%
Barometer: 1012 hPa
Sky Radar: Noen Skyer
Sikt: mer enn 10 km
Sky detaljer: Noen Skyer 4000 ft
VHHH 230130Z 03012KT 360V070 9999 FEW040 24/10 Q1012 NOSIG
VTBS - Bangkok Suvarnabhumi
Oppdatert: 23-10-2020 03:30
For det meste skyet  
For det meste skyet  
   Vind: Øst 5.7 m/s
Vind: Øst 5.7 m/s
Temperatur: 27°C
Varme Index: 28°C
Duggpunkt: 20°C
Luftfuktighet: 66%
Barometer: 1011 hPa
Sky Radar: For det meste skyet
Sikt: mer enn 10 km
Sky detaljer: Noen Skyer 2000 ft,
For det meste skyet 9000 ft
VTBS 230130Z 09011KT 9999 FEW020 BKN090 27/20 Q1011 NOSIG
VTBU - U-Tapao International Airport
Oppdatert: 23-10-2020 03:30
Noen Skyer  
Noen Skyer  
   Vind: ØNØ 2.6 m/s
Vind: ØNØ 2.6 m/s
Temperatur: 27°C
Varme Index: 28°C
Duggpunkt: 19°C
Luftfuktighet: 62%
Barometer: 1011 hPa
Sky Radar: Noen Skyer
Sikt: mer enn 10 km
Sky detaljer: Noen Skyer 2000 ft
VTBU 230130Z 07005KT 030V100 9999 FEW020 27/19 Q1011 NOSIG
VTUD - Udon Thani International Airport
Oppdatert: 23-10-2020 03:00
Vekslende skyet  
Vekslende skyet  
   Vind: ØSØ 2.1 m/s
Vind: ØSØ 2.1 m/s
Temperatur: 24°C
Duggpunkt: 18°C
Luftfuktighet: 69%
Barometer: 1013 hPa
Sky Radar: Vekslende skyet
Sikt: 6 km
Sky detaljer: Vekslende skyet
VTUD 230100Z 12004KT 090V160 6000 NSC 24/18 Q1013 NOSIG
 

Script er utviklet av  Saratoga-weather.org Anpasset for malen gjennom  Weerstation Leuven

Du finner vår vær info også på:

European Weather Network

Weather Underground

HAMweather, WeatherForYou, PWS Weather

Utstyr vi bruker:

Vær-stasjon
Oregon Scientific WMR 200

Vær-programmet
Weather Display

Vær-server
Gigabyte Brix

Leverandør
Onecom

Oregon Scientific WMR 200

Weather Display

Gigabyte Brix

Onecom



Værstasjon lokalisert i Sentrumsveien 49 , Siljan , Telemark , Norway : Station location Siljan , Telemark , Norway

Siden oppdateres fra en Oregon Scientific WMR 200 trådløs Værstasjon : Weatherstation Oregon Scientific WMR 200

Værprogramvare som kjøres lokalt er Weather Display 10.37s : Weatherprogram Weather Display 10.37s